BAW1311 LSZH-EGKK
Flight info
| Callsign | BAW1311 |
|---|---|
| Flight time | N/A |
| Altitude | 37000 |
| Route | VEBIT4W VEBIT T51 LASUN T14 LUMEL T10 TORPA DCT EDOPI DCT GIVOR DCT SORAL DCT IBERA N853 DIK M624 BUB L608 DENUT L610 TEBRA TEBRA2G |
| Aircraft | A388/J-SDE3L/L |
Departure
| Time | N/A |
|---|---|
| Airport | Zürich Airport (LSZH) |
Arrival
| Time | 2026-05-04 16:03 |
|---|---|
| Airport | London Gatwick Airport (EGKK) |
| Time | Latitude | Longitude | Altitude | Speed | Heading |
|---|---|---|---|---|---|
| 2026-05-04 15:21 | 51.34475 | 2.81312 | 13988 ft | 346 kts | 281° |
| 2026-05-04 15:21 | 51.35411 | 2.73746 | 13984 ft | 350 kts | 280° |
| 2026-05-04 15:22 | 51.35845 | 2.70230 | 13983 ft | 351 kts | 281° |
| 2026-05-04 15:22 | 51.35969 | 2.69229 | 13985 ft | 348 kts | 281° |
| 2026-05-04 15:23 | 51.36438 | 2.65431 | 13985 ft | 348 kts | 280° |
| 2026-05-04 15:23 | 51.36907 | 2.61619 | 13988 ft | 351 kts | 281° |
| 2026-05-04 15:23 | 51.37370 | 2.57851 | 13992 ft | 350 kts | 281° |
| 2026-05-04 15:23 | 51.37838 | 2.54027 | 13985 ft | 351 kts | 281° |
| 2026-05-04 15:24 | 51.38772 | 2.46364 | 13984 ft | 350 kts | 280° |
| 2026-05-04 15:24 | 51.39687 | 2.38813 | 13722 ft | 336 kts | 280° |
| 2026-05-04 15:25 | 51.40120 | 2.35226 | 13597 ft | 321 kts | 280° |
| 2026-05-04 15:25 | 51.40533 | 2.31794 | 13460 ft | 308 kts | 280° |
| 2026-05-04 15:25 | 51.40928 | 2.28501 | 13340 ft | 295 kts | 280° |
| 2026-05-04 15:26 | 51.41677 | 2.22289 | 13080 ft | 275 kts | 280° |
| 2026-05-04 15:26 | 51.42046 | 2.19282 | 12810 ft | 276 kts | 281° |
| 2026-05-04 15:26 | 51.42779 | 2.13293 | 12298 ft | 273 kts | 281° |
| 2026-05-04 15:27 | 51.43143 | 2.10303 | 12039 ft | 273 kts | 281° |
| 2026-05-04 15:27 | 51.43863 | 2.04366 | 11533 ft | 271 kts | 281° |
| 2026-05-04 15:28 | 51.44575 | 1.98454 | 11036 ft | 269 kts | 281° |
| 2026-05-04 15:28 | 51.44920 | 1.95527 | 10777 ft | 265 kts | 280° |
| 2026-05-04 15:28 | 51.45593 | 1.89740 | 10297 ft | 262 kts | 280° |
| 2026-05-04 15:29 | 51.45928 | 1.86855 | 10069 ft | 264 kts | 280° |
| 2026-05-04 15:30 | 51.47254 | 1.75459 | 9469 ft | 259 kts | 280° |
| 2026-05-04 15:30 | 51.48240 | 1.66920 | 9071 ft | 258 kts | 280° |
| 2026-05-04 15:31 | 51.48713 | 1.61311 | 8810 ft | 254 kts | 266° |
| 2026-05-04 15:31 | 51.48333 | 1.58539 | 8666 ft | 255 kts | 250° |
| 2026-05-04 15:32 | 51.46446 | 1.50564 | 8297 ft | 254 kts | 250° |
| 2026-05-04 15:32 | 51.45227 | 1.45245 | 8046 ft | 254 kts | 250° |
| 2026-05-04 15:33 | 51.44010 | 1.39971 | 7795 ft | 250 kts | 250° |
| 2026-05-04 15:34 | 51.40503 | 1.34001 | 7528 ft | 254 kts | 217° |
| 2026-05-04 15:34 | 51.39080 | 1.32332 | 7461 ft | 254 kts | 218° |
| 2026-05-04 15:34 | 51.36251 | 1.28975 | 7329 ft | 253 kts | 218° |
| 2026-05-04 15:35 | 51.33436 | 1.25638 | 7193 ft | 252 kts | 218° |
| 2026-05-04 15:35 | 51.32019 | 1.23959 | 7127 ft | 255 kts | 217° |
| 2026-05-04 15:35 | 51.30591 | 1.22270 | 7062 ft | 255 kts | 217° |
| 2026-05-04 15:36 | 51.27736 | 1.18911 | 6988 ft | 254 kts | 217° |
| 2026-05-04 15:36 | 51.26309 | 1.17233 | 6991 ft | 255 kts | 217° |
| 2026-05-04 15:36 | 51.24882 | 1.15555 | 6991 ft | 255 kts | 217° |
| 2026-05-04 15:37 | 51.23454 | 1.13877 | 6992 ft | 255 kts | 217° |
| 2026-05-04 15:37 | 51.22023 | 1.12195 | 6991 ft | 255 kts | 217° |
| 2026-05-04 15:37 | 51.20610 | 1.10537 | 6991 ft | 255 kts | 217° |
| 2026-05-04 15:37 | 51.19181 | 1.08863 | 6991 ft | 255 kts | 217° |
| 2026-05-04 15:38 | 51.17754 | 1.07192 | 6992 ft | 255 kts | 217° |
| 2026-05-04 15:38 | 51.16326 | 1.05520 | 6992 ft | 255 kts | 217° |
| 2026-05-04 15:38 | 51.14899 | 1.03849 | 6992 ft | 255 kts | 217° |
| 2026-05-04 15:38 | 51.13467 | 1.02176 | 6992 ft | 255 kts | 217° |
| 2026-05-04 15:39 | 51.12038 | 1.00506 | 6992 ft | 255 kts | 217° |
| 2026-05-04 15:39 | 51.10608 | 0.98839 | 6992 ft | 255 kts | 217° |
| 2026-05-04 15:39 | 51.07745 | 0.95502 | 6992 ft | 255 kts | 217° |
| 2026-05-04 15:40 | 51.06339 | 0.93792 | 6988 ft | 254 kts | 224° |
| 2026-05-04 15:40 | 51.05237 | 0.91622 | 6894 ft | 253 kts | 240° |
| 2026-05-04 15:40 | 51.04491 | 0.89096 | 6770 ft | 250 kts | 246° |
| 2026-05-04 15:40 | 51.03768 | 0.86582 | 6431 ft | 251 kts | 246° |
| 2026-05-04 15:41 | 51.03024 | 0.84070 | 6084 ft | 251 kts | 246° |
| 2026-05-04 15:41 | 51.02276 | 0.81571 | 5743 ft | 250 kts | 246° |
| 2026-05-04 15:41 | 51.01529 | 0.79079 | 5426 ft | 250 kts | 246° |
| 2026-05-04 15:41 | 51.00783 | 0.76591 | 5095 ft | 249 kts | 246° |
| 2026-05-04 15:42 | 51.00039 | 0.74104 | 4792 ft | 248 kts | 245° |
| 2026-05-04 15:42 | 50.99298 | 0.71635 | 4461 ft | 248 kts | 246° |
| 2026-05-04 15:42 | 50.98559 | 0.69171 | 4233 ft | 244 kts | 246° |
| 2026-05-04 15:42 | 50.97817 | 0.66705 | 4207 ft | 256 kts | 246° |
| 2026-05-04 15:43 | 50.97033 | 0.64090 | 4111 ft | 267 kts | 246° |
| 2026-05-04 15:43 | 50.96229 | 0.61420 | 4038 ft | 269 kts | 246° |
| 2026-05-04 15:43 | 50.95422 | 0.58746 | 3963 ft | 268 kts | 245° |
| 2026-05-04 15:43 | 50.94618 | 0.56085 | 3894 ft | 268 kts | 245° |
| 2026-05-04 15:44 | 50.93812 | 0.53423 | 3840 ft | 268 kts | 245° |
| 2026-05-04 15:44 | 50.93007 | 0.50764 | 3754 ft | 268 kts | 245° |
| 2026-05-04 15:44 | 50.92194 | 0.48096 | 3677 ft | 270 kts | 245° |
| 2026-05-04 15:44 | 50.91381 | 0.45428 | 3600 ft | 267 kts | 246° |
| 2026-05-04 15:45 | 50.90695 | 0.42699 | 3525 ft | 266 kts | 252° |
| 2026-05-04 15:45 | 50.90417 | 0.39827 | 3442 ft | 265 kts | 276° |
| 2026-05-04 15:45 | 50.90768 | 0.36969 | 3354 ft | 265 kts | 283° |
| 2026-05-04 15:45 | 50.91147 | 0.34129 | 3252 ft | 264 kts | 283° |
| 2026-05-04 15:46 | 50.91534 | 0.31275 | 3161 ft | 263 kts | 283° |
| 2026-05-04 15:46 | 50.91996 | 0.28474 | 3051 ft | 263 kts | 289° |
| 2026-05-04 15:46 | 50.92655 | 0.25781 | 2990 ft | 261 kts | 295° |
| 2026-05-04 15:46 | 50.93477 | 0.23217 | 2990 ft | 261 kts | 301° |
| 2026-05-04 15:47 | 50.94440 | 0.20844 | 2988 ft | 247 kts | 305° |
| 2026-05-04 15:47 | 50.95362 | 0.18669 | 2990 ft | 229 kts | 305° |
| 2026-05-04 15:47 | 50.96216 | 0.16653 | 2996 ft | 211 kts | 305° |
| 2026-05-04 15:47 | 50.96966 | 0.14840 | 3000 ft | 189 kts | 303° |
| 2026-05-04 15:48 | 50.97573 | 0.12998 | 3004 ft | 185 kts | 297° |
| 2026-05-04 15:48 | 50.98109 | 0.11188 | 2996 ft | 178 kts | 297° |
| 2026-05-04 15:48 | 50.99126 | 0.07668 | 2996 ft | 175 kts | 296° |
| 2026-05-04 15:49 | 50.99635 | 0.05907 | 2998 ft | 176 kts | 296° |
| 2026-05-04 15:49 | 51.00142 | 0.04150 | 2992 ft | 175 kts | 296° |
| 2026-05-04 15:49 | 51.00651 | 0.02388 | 2996 ft | 176 kts | 296° |
| 2026-05-04 15:49 | 51.01160 | 0.00625 | 2999 ft | 176 kts | 296° |
| 2026-05-04 15:50 | 51.01669 | -0.01135 | 2949 ft | 175 kts | 296° |
| 2026-05-04 15:50 | 51.02177 | -0.02893 | 2823 ft | 175 kts | 296° |
| 2026-05-04 15:50 | 51.02685 | -0.04646 | 2697 ft | 175 kts | 295° |
| 2026-05-04 15:50 | 51.03190 | -0.06393 | 2694 ft | 174 kts | 295° |
| 2026-05-04 15:51 | 51.03697 | -0.08151 | 2694 ft | 178 kts | 295° |
| 2026-05-04 15:51 | 51.04222 | -0.09970 | 2692 ft | 178 kts | 295° |
| 2026-05-04 15:51 | 51.04679 | -0.11721 | 2716 ft | 166 kts | 288° |
| 2026-05-04 15:51 | 51.04881 | -0.13505 | 2838 ft | 165 kts | 275° |
| 2026-05-04 15:52 | 51.04844 | -0.15318 | 2905 ft | 164 kts | 263° |
| 2026-05-04 15:52 | 51.04597 | -0.17091 | 2780 ft | 164 kts | 256° |
| 2026-05-04 15:52 | 51.04286 | -0.18836 | 2567 ft | 164 kts | 251° |
| 2026-05-04 15:52 | 51.03832 | -0.20489 | 2366 ft | 162 kts | 242° |
| 2026-05-04 15:53 | 51.03344 | -0.22101 | 2367 ft | 164 kts | 257° |
| 2026-05-04 15:53 | 51.03400 | -0.23882 | 2381 ft | 163 kts | 281° |
| 2026-05-04 15:53 | 51.03582 | -0.25660 | 2376 ft | 163 kts | 275° |
| 2026-05-04 15:53 | 51.03550 | -0.27460 | 2371 ft | 162 kts | 263° |
| 2026-05-04 15:54 | 51.03312 | -0.29213 | 2376 ft | 163 kts | 254° |
| 2026-05-04 15:54 | 51.02953 | -0.30926 | 2372 ft | 164 kts | 250° |
| 2026-05-04 15:54 | 51.02582 | -0.32635 | 2370 ft | 163 kts | 257° |
| 2026-05-04 15:54 | 51.02271 | -0.34368 | 2378 ft | 164 kts | 249° |
| 2026-05-04 15:55 | 51.01810 | -0.36024 | 2374 ft | 164 kts | 245° |
| 2026-05-04 15:55 | 51.01571 | -0.37760 | 2368 ft | 163 kts | 278° |
| 2026-05-04 15:55 | 51.01894 | -0.39480 | 2374 ft | 163 kts | 290° |
| 2026-05-04 15:55 | 51.02273 | -0.41173 | 2373 ft | 163 kts | 290° |
| 2026-05-04 15:56 | 51.02644 | -0.42875 | 2372 ft | 162 kts | 290° |
| 2026-05-04 15:56 | 51.03002 | -0.44581 | 2372 ft | 163 kts | 289° |
| 2026-05-04 15:56 | 51.03347 | -0.46271 | 2379 ft | 163 kts | 289° |
| 2026-05-04 15:56 | 51.03695 | -0.47988 | 2376 ft | 163 kts | 289° |
| 2026-05-04 15:57 | 51.04044 | -0.49699 | 2373 ft | 162 kts | 292° |
| 2026-05-04 15:57 | 51.04456 | -0.50701 | 2373 ft | 162 kts | 319° |
| 2026-05-04 15:57 | 51.05481 | -0.51287 | 2372 ft | 159 kts | 3° |
| 2026-05-04 15:57 | 51.06520 | -0.50724 | 2384 ft | 159 kts | 28° |
| 2026-05-04 15:58 | 51.07470 | -0.49828 | 2374 ft | 159 kts | 32° |
| 2026-05-04 15:58 | 51.08400 | -0.48885 | 2378 ft | 159 kts | 33° |
| 2026-05-04 15:58 | 51.09311 | -0.47950 | 2374 ft | 157 kts | 33° |
| 2026-05-04 15:58 | 51.10179 | -0.46884 | 2376 ft | 158 kts | 44° |
| 2026-05-04 15:59 | 51.10847 | -0.45496 | 2377 ft | 158 kts | 60° |
| 2026-05-04 15:59 | 51.11311 | -0.43911 | 2375 ft | 159 kts | 70° |
| 2026-05-04 15:59 | 51.11598 | -0.42219 | 2374 ft | 158 kts | 77° |
| 2026-05-04 15:59 | 51.11817 | -0.40509 | 2372 ft | 158 kts | 77° |
| 2026-05-04 16:00 | 51.12064 | -0.38805 | 2375 ft | 159 kts | 77° |
| 2026-05-04 16:00 | 51.12303 | -0.37093 | 2331 ft | 158 kts | 76° |
| 2026-05-04 16:00 | 51.12546 | -0.35381 | 2115 ft | 158 kts | 79° |
| 2026-05-04 16:00 | 51.12779 | -0.33711 | 1906 ft | 155 kts | 76° |
| 2026-05-04 16:01 | 51.13019 | -0.32024 | 1709 ft | 155 kts | 79° |
| 2026-05-04 16:01 | 51.13236 | -0.30347 | 1492 ft | 155 kts | 77° |
| 2026-05-04 16:01 | 51.13474 | -0.28682 | 1295 ft | 153 kts | 78° |
| 2026-05-04 16:01 | 51.13697 | -0.27025 | 1073 ft | 151 kts | 77° |
| 2026-05-04 16:02 | 51.13933 | -0.25419 | 851 ft | 148 kts | 76° |
| 2026-05-04 16:02 | 51.14151 | -0.23802 | 662 ft | 150 kts | 78° |
| 2026-05-04 16:02 | 51.14599 | -0.20632 | 259 ft | 147 kts | 77° |
| 2026-05-04 16:03 | 51.14783 | -0.19237 | 213 ft | 92 kts | 77° |
| 2026-05-04 16:03 | 51.14865 | -0.18709 | 214 ft | 33 kts | 70° |
| 2026-05-04 16:03 | 51.14945 | -0.18509 | 221 ft | 0 kts | 52° |
| 2026-05-04 16:03 | 51.14945 | -0.18508 | 221 ft | 0 kts | 52° |
| 2026-05-04 16:04 | 51.14971 | -0.18455 | 220 ft | 12 kts | 52° |
| 2026-05-04 16:04 | 51.14976 | -0.18446 | 213 ft | 0 kts | 52° |
| 2026-05-04 16:06 | 51.15005 | -0.18387 | 221 ft | 0 kts | 52° |
| 2026-05-04 16:06 | 51.15013 | -0.18369 | 221 ft | 2 kts | 51° |
| 2026-05-04 16:07 | 51.15015 | -0.18366 | 218 ft | 0 kts | 51° |
| 2026-05-04 16:11 | 51.15089 | -0.18221 | 214 ft | 27 kts | 51° |
| 2026-05-04 16:11 | 51.15133 | -0.18098 | 215 ft | 0 kts | 59° |
| 2026-05-04 16:12 | 51.15160 | -0.18072 | 220 ft | 0 kts | 348° |
| 2026-05-04 16:23 | 51.15179 | -0.18383 | 212 ft | 18 kts | 259° |
| 2026-05-04 16:24 | 51.15120 | -0.18803 | 215 ft | 3 kts | 257° |
| 2026-05-04 16:25 | 51.15122 | -0.18700 | 222 ft | 0 kts | 349° |
| 2026-05-04 16:26 | 51.15197 | -0.18713 | 217 ft | 11 kts | 354° |
| 2026-05-04 16:26 | 51.15275 | -0.18849 | 212 ft | 0 kts | 254° |
| 2026-05-04 16:27 | 51.15270 | -0.18879 | 218 ft | 0 kts | 254° |